sensor_id;sensor_type;location;lat;lon;timestamp;temperature;humidity
52189;DHT22;38162;45.926;13.608;2023-04-25T00:01:46;11.30;99.60
52189;DHT22;38162;45.926;13.608;2023-04-25T00:04:12;11.30;99.80
52189;DHT22;38162;45.926;13.608;2023-04-25T00:06:38;11.20;99.80
52189;DHT22;38162;45.926;13.608;2023-04-25T00:09:05;11.20;99.90
52189;DHT22;38162;45.926;13.608;2023-04-25T00:11:33;11.10;99.90
52189;DHT22;38162;45.926;13.608;2023-04-25T00:13:59;11.10;99.90
52189;DHT22;38162;45.926;13.608;2023-04-25T00:16:27;11.10;99.90
52189;DHT22;38162;45.926;13.608;2023-04-25T00:18:54;11.10;99.90
52189;DHT22;38162;45.926;13.608;2023-04-25T00:21:20;11.10;99.90
52189;DHT22;38162;45.926;13.608;2023-04-25T00:23:46;11.00;99.90
52189;DHT22;38162;45.926;13.608;2023-04-25T00:26:12;11.10;99.90
52189;DHT22;38162;45.926;13.608;2023-04-25T00:28:39;11.10;99.90
52189;DHT22;38162;45.926;13.608;2023-04-25T00:31:05;11.10;99.90
52189;DHT22;38162;45.926;13.608;2023-04-25T00:33:31;11.10;99.90
52189;DHT22;38162;45.926;13.608;2023-04-25T00:35:57;11.10;99.90
52189;DHT22;38162;45.926;13.608;2023-04-25T00:38:22;11.10;99.90
52189;DHT22;38162;45.926;13.608;2023-04-25T00:40:48;11.10;99.90
52189;DHT22;38162;45.926;13.608;2023-04-25T00:43:14;11.10;99.90
52189;DHT22;38162;45.926;13.608;2023-04-25T00:45:40;11.10;99.90
52189;DHT22;38162;45.926;13.608;2023-04-25T00:48:06;11.10;99.90
52189;DHT22;38162;45.926;13.608;2023-04-25T00:50:36;11.10;99.90
52189;DHT22;38162;45.926;13.608;2023-04-25T00:53:02;11.10;99.90
52189;DHT22;38162;45.926;13.608;2023-04-25T00:55:29;11.10;99.90
52189;DHT22;38162;45.926;13.608;2023-04-25T00:57:57;11.10;99.90
52189;DHT22;38162;45.926;13.608;2023-04-25T01:00:23;11.10;99.90
52189;DHT22;38162;45.926;13.608;2023-04-25T01:02:49;11.20;99.90
52189;DHT22;38162;45.926;13.608;2023-04-25T01:05:15;11.10;99.90
52189;DHT22;38162;45.926;13.608;2023-04-25T01:07:41;11.20;99.90
52189;DHT22;38162;45.926;13.608;2023-04-25T01:10:07;11.20;99.90
52189;DHT22;38162;45.926;13.608;2023-04-25T01:12:34;11.20;99.90
52189;DHT22;38162;45.926;13.608;2023-04-25T01:14:59;11.20;99.90
52189;DHT22;38162;45.926;13.608;2023-04-25T01:17:25;11.20;99.90
52189;DHT22;38162;45.926;13.608;2023-04-25T01:19:52;11.20;99.90
52189;DHT22;38162;45.926;13.608;2023-04-25T01:22:18;11.20;99.90
52189;DHT22;38162;45.926;13.608;2023-04-25T01:24:44;11.20;99.90
52189;DHT22;38162;45.926;13.608;2023-04-25T01:27:10;11.20;99.90
52189;DHT22;38162;45.926;13.608;2023-04-25T01:29:37;11.20;99.90
52189;DHT22;38162;45.926;13.608;2023-04-25T01:32:03;11.20;99.90
52189;DHT22;38162;45.926;13.608;2023-04-25T01:34:29;11.20;99.90
52189;DHT22;38162;45.926;13.608;2023-04-25T01:36:55;11.20;99.90
52189;DHT22;38162;45.926;13.608;2023-04-25T01:39:21;11.20;99.90
52189;DHT22;38162;45.926;13.608;2023-04-25T01:41:47;11.20;99.90
52189;DHT22;38162;45.926;13.608;2023-04-25T01:44:14;11.20;99.90
52189;DHT22;38162;45.926;13.608;2023-04-25T01:46:40;11.10;99.90
52189;DHT22;38162;45.926;13.608;2023-04-25T01:49:06;11.10;99.90
52189;DHT22;38162;45.926;13.608;2023-04-25T01:51:32;11.20;99.90
52189;DHT22;38162;45.926;13.608;2023-04-25T01:53:58;11.20;99.90
52189;DHT22;38162;45.926;13.608;2023-04-25T01:56:23;11.10;99.90
52189;DHT22;38162;45.926;13.608;2023-04-25T01:58:51;11.10;99.90
52189;DHT22;38162;45.926;13.608;2023-04-25T02:01:16;11.10;99.90
52189;DHT22;38162;45.926;13.608;2023-04-25T02:03:43;11.10;99.90
52189;DHT22;38162;45.926;13.608;2023-04-25T02:06:08;11.10;99.90
52189;DHT22;38162;45.926;13.608;2023-04-25T02:08:34;11.10;99.90
52189;DHT22;38162;45.926;13.608;2023-04-25T02:11:00;11.10;99.90
52189;DHT22;38162;45.926;13.608;2023-04-25T02:13:26;11.10;99.90
52189;DHT22;38162;45.926;13.608;2023-04-25T02:15:51;11.00;99.90
52189;DHT22;38162;45.926;13.608;2023-04-25T02:18:17;11.00;99.90
52189;DHT22;38162;45.926;13.608;2023-04-25T02:20:43;11.10;99.90
52189;DHT22;38162;45.926;13.608;2023-04-25T02:23:09;11.00;99.90
52189;DHT22;38162;45.926;13.608;2023-04-25T02:25:35;11.10;99.90
52189;DHT22;38162;45.926;13.608;2023-04-25T02:28:01;11.10;99.90
52189;DHT22;38162;45.926;13.608;2023-04-25T02:30:27;11.00;99.90
52189;DHT22;38162;45.926;13.608;2023-04-25T02:32:52;11.00;99.90
52189;DHT22;38162;45.926;13.608;2023-04-25T02:35:18;11.00;99.90
52189;DHT22;38162;45.926;13.608;2023-04-25T02:37:44;10.90;99.90
52189;DHT22;38162;45.926;13.608;2023-04-25T02:40:10;10.90;99.90
52189;DHT22;38162;45.926;13.608;2023-04-25T02:42:36;10.90;99.90
52189;DHT22;38162;45.926;13.608;2023-04-25T02:45:02;10.90;99.90
52189;DHT22;38162;45.926;13.608;2023-04-25T02:47:28;10.90;99.90
52189;DHT22;38162;45.926;13.608;2023-04-25T02:49:54;10.90;99.90
52189;DHT22;38162;45.926;13.608;2023-04-25T02:52:20;10.90;99.90
52189;DHT22;38162;45.926;13.608;2023-04-25T02:54:46;10.90;99.90
52189;DHT22;38162;45.926;13.608;2023-04-25T02:57:12;11.00;99.90
52189;DHT22;38162;45.926;13.608;2023-04-25T02:59:38;11.00;99.90
52189;DHT22;38162;45.926;13.608;2023-04-25T03:02:04;11.00;99.90
52189;DHT22;38162;45.926;13.608;2023-04-25T03:04:29;11.10;99.90
52189;DHT22;38162;45.926;13.608;2023-04-25T03:06:55;11.00;99.90
52189;DHT22;38162;45.926;13.608;2023-04-25T03:09:21;11.10;99.90
52189;DHT22;38162;45.926;13.608;2023-04-25T03:11:47;11.00;99.90
52189;DHT22;38162;45.926;13.608;2023-04-25T03:14:13;11.00;99.90
52189;DHT22;38162;45.926;13.608;2023-04-25T03:16:39;11.10;99.90
52189;DHT22;38162;45.926;13.608;2023-04-25T03:19:05;11.00;99.90
52189;DHT22;38162;45.926;13.608;2023-04-25T03:21:32;11.00;99.90
52189;DHT22;38162;45.926;13.608;2023-04-25T03:23:59;11.00;99.90
52189;DHT22;38162;45.926;13.608;2023-04-25T03:26:25;11.00;99.90
52189;DHT22;38162;45.926;13.608;2023-04-25T03:28:50;11.00;99.90
52189;DHT22;38162;45.926;13.608;2023-04-25T03:31:16;11.00;99.90
52189;DHT22;38162;45.926;13.608;2023-04-25T03:33:42;11.00;99.90
52189;DHT22;38162;45.926;13.608;2023-04-25T03:36:08;11.00;99.90
52189;DHT22;38162;45.926;13.608;2023-04-25T03:38:34;11.00;99.90
52189;DHT22;38162;45.926;13.608;2023-04-25T03:41:01;11.10;99.90
52189;DHT22;38162;45.926;13.608;2023-04-25T03:43:27;11.10;99.90
52189;DHT22;38162;45.926;13.608;2023-04-25T03:45:52;11.00;99.90
52189;DHT22;38162;45.926;13.608;2023-04-25T03:48:18;11.00;99.90
52189;DHT22;38162;45.926;13.608;2023-04-25T03:50:47;11.00;99.90
52189;DHT22;38162;45.926;13.608;2023-04-25T03:53:12;11.00;99.90
52189;DHT22;38162;45.926;13.608;2023-04-25T03:55:38;10.90;99.90
52189;DHT22;38162;45.926;13.608;2023-04-25T03:58:04;10.90;99.90
52189;DHT22;38162;45.926;13.608;2023-04-25T04:00:30;10.90;99.90
52189;DHT22;38162;45.926;13.608;2023-04-25T04:02:56;10.80;99.90
52189;DHT22;38162;45.926;13.608;2023-04-25T04:05:21;10.90;99.90
52189;DHT22;38162;45.926;13.608;2023-04-25T04:07:47;10.90;99.90
52189;DHT22;38162;45.926;13.608;2023-04-25T04:10:13;10.90;99.90
52189;DHT22;38162;45.926;13.608;2023-04-25T04:12:39;10.90;99.90
52189;DHT22;38162;45.926;13.608;2023-04-25T04:15:05;10.90;99.90
52189;DHT22;38162;45.926;13.608;2023-04-25T04:17:32;10.90;99.90
52189;DHT22;38162;45.926;13.608;2023-04-25T04:19:58;10.80;99.90
52189;DHT22;38162;45.926;13.608;2023-04-25T04:22:24;10.80;99.90
52189;DHT22;38162;45.926;13.608;2023-04-25T04:24:50;10.70;99.90
52189;DHT22;38162;45.926;13.608;2023-04-25T04:27:17;10.70;99.90
52189;DHT22;38162;45.926;13.608;2023-04-25T04:29:43;10.70;99.90
52189;DHT22;38162;45.926;13.608;2023-04-25T04:32:09;10.60;99.90
52189;DHT22;38162;45.926;13.608;2023-04-25T04:34:35;10.60;99.90
52189;DHT22;38162;45.926;13.608;2023-04-25T04:37:01;10.60;99.90
52189;DHT22;38162;45.926;13.608;2023-04-25T04:39:27;10.60;99.90
52189;DHT22;38162;45.926;13.608;2023-04-25T04:41:54;10.60;99.90
52189;DHT22;38162;45.926;13.608;2023-04-25T04:44:19;10.60;99.90
52189;DHT22;38162;45.926;13.608;2023-04-25T04:46:45;10.50;99.70
52189;DHT22;38162;45.926;13.608;2023-04-25T04:49:12;10.50;99.70
52189;DHT22;38162;45.926;13.608;2023-04-25T04:51:39;10.50;99.60
52189;DHT22;38162;45.926;13.608;2023-04-25T04:54:06;10.50;99.70
52189;DHT22;38162;45.926;13.608;2023-04-25T04:56:32;10.50;99.70
52189;DHT22;38162;45.926;13.608;2023-04-25T04:58:59;10.40;99.80
52189;DHT22;38162;45.926;13.608;2023-04-25T05:01:26;10.40;99.90
52189;DHT22;38162;45.926;13.608;2023-04-25T05:03:52;10.40;99.90
52189;DHT22;38162;45.926;13.608;2023-04-25T05:06:20;10.40;99.90
52189;DHT22;38162;45.926;13.608;2023-04-25T05:08:46;10.40;99.90
52189;DHT22;38162;45.926;13.608;2023-04-25T05:11:12;10.40;99.90
52189;DHT22;38162;45.926;13.608;2023-04-25T05:13:37;10.40;99.90
52189;DHT22;38162;45.926;13.608;2023-04-25T05:16:03;10.50;99.90
52189;DHT22;38162;45.926;13.608;2023-04-25T05:18:29;10.50;99.90
52189;DHT22;38162;45.926;13.608;2023-04-25T05:20:55;10.50;99.90
52189;DHT22;38162;45.926;13.608;2023-04-25T05:23:21;10.60;99.90
52189;DHT22;38162;45.926;13.608;2023-04-25T05:25:47;10.60;99.90
52189;DHT22;38162;45.926;13.608;2023-04-25T05:28:13;10.60;99.90
52189;DHT22;38162;45.926;13.608;2023-04-25T05:30:39;10.70;99.90
52189;DHT22;38162;45.926;13.608;2023-04-25T05:33:04;10.70;99.90
52189;DHT22;38162;45.926;13.608;2023-04-25T05:35:30;10.80;99.90
52189;DHT22;38162;45.926;13.608;2023-04-25T05:37:56;10.80;99.90
52189;DHT22;38162;45.926;13.608;2023-04-25T05:40:22;10.90;99.90
52189;DHT22;38162;45.926;13.608;2023-04-25T05:42:47;10.90;99.90
52189;DHT22;38162;45.926;13.608;2023-04-25T05:45:13;11.00;99.90
52189;DHT22;38162;45.926;13.608;2023-04-25T05:47:39;11.00;99.90
52189;DHT22;38162;45.926;13.608;2023-04-25T05:50:05;11.10;99.90
52189;DHT22;38162;45.926;13.608;2023-04-25T05:52:31;11.20;99.90
52189;DHT22;38162;45.926;13.608;2023-04-25T05:54:57;11.20;99.90
52189;DHT22;38162;45.926;13.608;2023-04-25T05:57:26;11.30;99.90
52189;DHT22;38162;45.926;13.608;2023-04-25T05:59:53;11.40;99.90
52189;DHT22;38162;45.926;13.608;2023-04-25T06:02:22;11.50;99.90
52189;DHT22;38162;45.926;13.608;2023-04-25T06:04:51;11.60;99.90
52189;DHT22;38162;45.926;13.608;2023-04-25T06:07:17;11.70;99.90
52189;DHT22;38162;45.926;13.608;2023-04-25T06:09:43;11.70;99.90
52189;DHT22;38162;45.926;13.608;2023-04-25T06:12:10;11.80;99.90
52189;DHT22;38162;45.926;13.608;2023-04-25T06:14:36;11.80;99.90
52189;DHT22;38162;45.926;13.608;2023-04-25T06:17:03;11.90;99.90
52189;DHT22;38162;45.926;13.608;2023-04-25T06:19:34;11.90;99.90
52189;DHT22;38162;45.926;13.608;2023-04-25T06:22:00;11.90;99.90
52189;DHT22;38162;45.926;13.608;2023-04-25T06:24:26;12.00;99.90
52189;DHT22;38162;45.926;13.608;2023-04-25T06:26:52;12.00;99.80
52189;DHT22;38162;45.926;13.608;2023-04-25T06:29:18;12.00;99.80
52189;DHT22;38162;45.926;13.608;2023-04-25T06:31:44;12.00;99.70
52189;DHT22;38162;45.926;13.608;2023-04-25T06:34:10;12.10;99.70
52189;DHT22;38162;45.926;13.608;2023-04-25T06:36:36;12.10;99.70
52189;DHT22;38162;45.926;13.608;2023-04-25T06:39:02;12.10;99.50
52189;DHT22;38162;45.926;13.608;2023-04-25T06:41:28;12.20;99.70
52189;DHT22;38162;45.926;13.608;2023-04-25T06:43:54;12.20;99.60
52189;DHT22;38162;45.926;13.608;2023-04-25T06:46:19;12.20;99.60
52189;DHT22;38162;45.926;13.608;2023-04-25T06:48:45;12.20;99.50
52189;DHT22;38162;45.926;13.608;2023-04-25T06:51:11;12.30;99.30
52189;DHT22;38162;45.926;13.608;2023-04-25T06:53:39;12.30;99.50
52189;DHT22;38162;45.926;13.608;2023-04-25T06:56:05;12.30;99.10
52189;DHT22;38162;45.926;13.608;2023-04-25T06:58:30;12.30;99.40
52189;DHT22;38162;45.926;13.608;2023-04-25T07:00:56;12.30;99.60
52189;DHT22;38162;45.926;13.608;2023-04-25T07:03:22;12.40;99.70
52189;DHT22;38162;45.926;13.608;2023-04-25T07:05:48;12.40;99.50
52189;DHT22;38162;45.926;13.608;2023-04-25T07:08:13;12.40;99.80
52189;DHT22;38162;45.926;13.608;2023-04-25T07:10:39;12.50;99.80
52189;DHT22;38162;45.926;13.608;2023-04-25T07:13:05;12.50;99.50
52189;DHT22;38162;45.926;13.608;2023-04-25T07:15:31;12.50;99.70
52189;DHT22;38162;45.926;13.608;2023-04-25T07:17:57;12.50;99.70
52189;DHT22;38162;45.926;13.608;2023-04-25T07:20:22;12.60;99.70
52189;DHT22;38162;45.926;13.608;2023-04-25T07:22:48;12.50;99.80
52189;DHT22;38162;45.926;13.608;2023-04-25T07:25:15;12.60;99.90
52189;DHT22;38162;45.926;13.608;2023-04-25T07:27:41;12.50;99.80
52189;DHT22;38162;45.926;13.608;2023-04-25T07:30:07;12.60;99.90
52189;DHT22;38162;45.926;13.608;2023-04-25T07:32:33;12.60;99.40
52189;DHT22;38162;45.926;13.608;2023-04-25T07:34:59;12.60;99.40
52189;DHT22;38162;45.926;13.608;2023-04-25T07:37:25;12.60;99.90
52189;DHT22;38162;45.926;13.608;2023-04-25T07:39:51;12.60;99.20
52189;DHT22;38162;45.926;13.608;2023-04-25T07:42:17;12.60;98.90
52189;DHT22;38162;45.926;13.608;2023-04-25T07:44:43;12.60;98.90
52189;DHT22;38162;45.926;13.608;2023-04-25T07:47:09;12.50;99.40
52189;DHT22;38162;45.926;13.608;2023-04-25T07:49:36;12.50;99.50
52189;DHT22;38162;45.926;13.608;2023-04-25T07:52:03;12.50;99.60
52189;DHT22;38162;45.926;13.608;2023-04-25T07:54:29;12.50;99.40
52189;DHT22;38162;45.926;13.608;2023-04-25T07:56:55;12.50;99.40
52189;DHT22;38162;45.926;13.608;2023-04-25T07:59:21;12.50;99.70
52189;DHT22;38162;45.926;13.608;2023-04-25T08:01:47;12.50;99.60
52189;DHT22;38162;45.926;13.608;2023-04-25T08:04:13;12.40;99.70
52189;DHT22;38162;45.926;13.608;2023-04-25T08:06:39;12.40;99.80
52189;DHT22;38162;45.926;13.608;2023-04-25T08:09:05;12.40;99.70
52189;DHT22;38162;45.926;13.608;2023-04-25T08:11:31;12.40;99.70
52189;DHT22;38162;45.926;13.608;2023-04-25T08:13:57;12.50;99.70
52189;DHT22;38162;45.926;13.608;2023-04-25T08:16:23;12.50;99.50
52189;DHT22;38162;45.926;13.608;2023-04-25T08:18:50;12.50;99.60
52189;DHT22;38162;45.926;13.608;2023-04-25T08:21:16;12.50;99.50
52189;DHT22;38162;45.926;13.608;2023-04-25T08:23:41;12.60;99.30
52189;DHT22;38162;45.926;13.608;2023-04-25T08:26:07;12.60;99.10
52189;DHT22;38162;45.926;13.608;2023-04-25T08:28:33;12.60;99.50
52189;DHT22;38162;45.926;13.608;2023-04-25T08:30:59;12.60;99.50
52189;DHT22;38162;45.926;13.608;2023-04-25T08:33:25;12.60;99.60
52189;DHT22;38162;45.926;13.608;2023-04-25T08:35:51;12.60;99.70
52189;DHT22;38162;45.926;13.608;2023-04-25T08:38:17;12.60;99.70
52189;DHT22;38162;45.926;13.608;2023-04-25T08:40:44;12.60;99.90
52189;DHT22;38162;45.926;13.608;2023-04-25T08:43:13;12.60;99.90
52189;DHT22;38162;45.926;13.608;2023-04-25T08:45:41;12.60;99.90
52189;DHT22;38162;45.926;13.608;2023-04-25T08:48:13;12.60;99.50
52189;DHT22;38162;45.926;13.608;2023-04-25T08:50:53;12.50;99.40
52189;DHT22;38162;45.926;13.608;2023-04-25T08:53:26;12.50;99.40
52189;DHT22;38162;45.926;13.608;2023-04-25T08:55:54;12.40;99.20
52189;DHT22;38162;45.926;13.608;2023-04-25T08:58:20;12.40;99.30
52189;DHT22;38162;45.926;13.608;2023-04-25T09:00:47;12.40;99.50
52189;DHT22;38162;45.926;13.608;2023-04-25T09:03:13;12.40;99.80
52189;DHT22;38162;45.926;13.608;2023-04-25T09:05:40;12.40;99.90
52189;DHT22;38162;45.926;13.608;2023-04-25T09:08:07;12.40;99.90
52189;DHT22;38162;45.926;13.608;2023-04-25T09:10:33;12.40;99.90
52189;DHT22;38162;45.926;13.608;2023-04-25T09:13:12;12.40;99.70
52189;DHT22;38162;45.926;13.608;2023-04-25T09:15:57;12.40;99.40
52189;DHT22;38162;45.926;13.608;2023-04-25T09:20:54;12.40;99.50
52189;DHT22;38162;45.926;13.608;2023-04-25T09:23:22;12.40;99.70
52189;DHT22;38162;45.926;13.608;2023-04-25T09:25:53;12.50;99.60
52189;DHT22;38162;45.926;13.608;2023-04-25T09:28:25;12.50;99.50
52189;DHT22;38162;45.926;13.608;2023-04-25T09:30:55;12.50;99.60
52189;DHT22;38162;45.926;13.608;2023-04-25T09:33:29;12.50;99.10
52189;DHT22;38162;45.926;13.608;2023-04-25T09:36:09;12.50;98.60
52189;DHT22;38162;45.926;13.608;2023-04-25T09:38:44;12.50;98.60
52189;DHT22;38162;45.926;13.608;2023-04-25T09:41:10;12.60;98.90
52189;DHT22;38162;45.926;13.608;2023-04-25T09:43:37;12.60;98.50
52189;DHT22;38162;45.926;13.608;2023-04-25T09:46:08;12.60;98.60
52189;DHT22;38162;45.926;13.608;2023-04-25T09:48:35;12.60;98.50
52189;DHT22;38162;45.926;13.608;2023-04-25T09:51:11;12.60;98.00
52189;DHT22;38162;45.926;13.608;2023-04-25T09:53:41;12.60;98.00
52189;DHT22;38162;45.926;13.608;2023-04-25T09:56:10;12.60;97.90
52189;DHT22;38162;45.926;13.608;2023-04-25T09:58:37;12.70;98.40
52189;DHT22;38162;45.926;13.608;2023-04-25T10:01:05;12.80;98.10
52189;DHT22;38162;45.926;13.608;2023-04-25T10:03:33;12.80;98.30
52189;DHT22;38162;45.926;13.608;2023-04-25T10:06:01;12.80;97.70
52189;DHT22;38162;45.926;13.608;2023-04-25T10:08:35;12.90;97.70
52189;DHT22;38162;45.926;13.608;2023-04-25T10:11:03;12.80;97.40
52189;DHT22;38162;45.926;13.608;2023-04-25T10:13:32;12.90;97.50
52189;DHT22;38162;45.926;13.608;2023-04-25T10:16:00;12.90;97.90
52189;DHT22;38162;45.926;13.608;2023-04-25T10:18:29;12.90;97.90
52189;DHT22;38162;45.926;13.608;2023-04-25T10:21:02;12.90;97.70
52189;DHT22;38162;45.926;13.608;2023-04-25T10:23:30;13.00;98.00
52189;DHT22;38162;45.926;13.608;2023-04-25T10:25:57;13.00;97.80
52189;DHT22;38162;45.926;13.608;2023-04-25T10:28:22;12.90;96.20
52189;DHT22;38162;45.926;13.608;2023-04-25T10:31:07;12.90;96.40
52189;DHT22;38162;45.926;13.608;2023-04-25T10:33:34;12.90;97.00
52189;DHT22;38162;45.926;13.608;2023-04-25T10:36:32;12.90;96.30
52189;DHT22;38162;45.926;13.608;2023-04-25T10:39:04;12.90;96.70
52189;DHT22;38162;45.926;13.608;2023-04-25T10:42:01;12.90;96.10
52189;DHT22;38162;45.926;13.608;2023-04-25T10:44:28;12.90;96.00
52189;DHT22;38162;45.926;13.608;2023-04-25T10:47:06;12.90;96.20
52189;DHT22;38162;45.926;13.608;2023-04-25T10:49:42;12.90;96.30
52189;DHT22;38162;45.926;13.608;2023-04-25T10:54:54;12.90;96.30
52189;DHT22;38162;45.926;13.608;2023-04-25T10:57:29;12.90;96.60
52189;DHT22;38162;45.926;13.608;2023-04-25T11:02:31;12.90;96.60
52189;DHT22;38162;45.926;13.608;2023-04-25T11:04:56;13.00;96.20
52189;DHT22;38162;45.926;13.608;2023-04-25T11:07:38;12.90;95.70
52189;DHT22;38162;45.926;13.608;2023-04-25T11:10:05;12.90;96.20
52189;DHT22;38162;45.926;13.608;2023-04-25T11:12:32;13.00;96.10
52189;DHT22;38162;45.926;13.608;2023-04-25T11:15:05;13.00;96.00
52189;DHT22;38162;45.926;13.608;2023-04-25T11:17:32;12.90;96.40
52189;DHT22;38162;45.926;13.608;2023-04-25T11:19:58;13.00;96.60
52189;DHT22;38162;45.926;13.608;2023-04-25T11:22:24;12.90;96.30
52189;DHT22;38162;45.926;13.608;2023-04-25T11:24:50;13.00;96.60
52189;DHT22;38162;45.926;13.608;2023-04-25T11:27:16;13.00;96.70
52189;DHT22;38162;45.926;13.608;2023-04-25T11:29:42;13.00;96.50
52189;DHT22;38162;45.926;13.608;2023-04-25T11:32:07;13.00;96.20
52189;DHT22;38162;45.926;13.608;2023-04-25T11:34:34;13.00;95.40
52189;DHT22;38162;45.926;13.608;2023-04-25T11:37:03;13.00;95.50
52189;DHT22;38162;45.926;13.608;2023-04-25T11:39:29;13.00;95.40
52189;DHT22;38162;45.926;13.608;2023-04-25T11:41:55;13.00;95.80
52189;DHT22;38162;45.926;13.608;2023-04-25T11:44:22;13.00;95.80
52189;DHT22;38162;45.926;13.608;2023-04-25T11:46:48;13.00;96.20
52189;DHT22;38162;45.926;13.608;2023-04-25T11:49:15;13.00;96.40
52189;DHT22;38162;45.926;13.608;2023-04-25T11:51:42;13.00;96.50
52189;DHT22;38162;45.926;13.608;2023-04-25T11:54:09;13.10;96.10
52189;DHT22;38162;45.926;13.608;2023-04-25T11:56:35;13.10;95.90
52189;DHT22;38162;45.926;13.608;2023-04-25T11:59:02;13.10;96.10
52189;DHT22;38162;45.926;13.608;2023-04-25T12:01:36;13.10;96.10
52189;DHT22;38162;45.926;13.608;2023-04-25T12:04:11;13.10;95.40
52189;DHT22;38162;45.926;13.608;2023-04-25T12:06:38;13.10;95.40
52189;DHT22;38162;45.926;13.608;2023-04-25T12:09:09;13.10;95.30
52189;DHT22;38162;45.926;13.608;2023-04-25T12:11:47;13.10;95.30
52189;DHT22;38162;45.926;13.608;2023-04-25T12:14:24;13.10;95.60
52189;DHT22;38162;45.926;13.608;2023-04-25T12:16:50;13.00;95.80
52189;DHT22;38162;45.926;13.608;2023-04-25T12:19:20;13.00;95.70
52189;DHT22;38162;45.926;13.608;2023-04-25T12:21:46;13.10;96.00
52189;DHT22;38162;45.926;13.608;2023-04-25T12:24:22;13.10;95.90
52189;DHT22;38162;45.926;13.608;2023-04-25T12:27:08;13.10;95.80
52189;DHT22;38162;45.926;13.608;2023-04-25T12:29:34;13.10;95.70
52189;DHT22;38162;45.926;13.608;2023-04-25T12:32:00;13.10;95.70
52189;DHT22;38162;45.926;13.608;2023-04-25T12:34:27;13.10;95.40
52189;DHT22;38162;45.926;13.608;2023-04-25T12:36:53;13.10;95.90
52189;DHT22;38162;45.926;13.608;2023-04-25T12:39:24;13.10;95.80
52189;DHT22;38162;45.926;13.608;2023-04-25T12:41:53;13.10;96.40
52189;DHT22;38162;45.926;13.608;2023-04-25T12:44:20;13.10;96.40
52189;DHT22;38162;45.926;13.608;2023-04-25T12:46:47;13.10;96.40
52189;DHT22;38162;45.926;13.608;2023-04-25T12:49:13;13.20;96.80
52189;DHT22;38162;45.926;13.608;2023-04-25T12:51:39;13.20;97.10
52189;DHT22;38162;45.926;13.608;2023-04-25T12:54:06;13.20;96.70
52189;DHT22;38162;45.926;13.608;2023-04-25T12:56:35;13.30;96.20
52189;DHT22;38162;45.926;13.608;2023-04-25T12:59:02;13.30;96.30
52189;DHT22;38162;45.926;13.608;2023-04-25T13:01:30;13.40;96.40
52189;DHT22;38162;45.926;13.608;2023-04-25T13:03:57;13.40;96.30
52189;DHT22;38162;45.926;13.608;2023-04-25T13:06:23;13.50;96.10
52189;DHT22;38162;45.926;13.608;2023-04-25T13:08:48;13.50;95.50
52189;DHT22;38162;45.926;13.608;2023-04-25T13:11:14;13.40;94.70
52189;DHT22;38162;45.926;13.608;2023-04-25T13:13:40;13.50;95.50
52189;DHT22;38162;45.926;13.608;2023-04-25T13:16:07;13.50;95.40
52189;DHT22;38162;45.926;13.608;2023-04-25T13:18:33;13.50;95.70
52189;DHT22;38162;45.926;13.608;2023-04-25T13:20:59;13.60;95.60
52189;DHT22;38162;45.926;13.608;2023-04-25T13:23:27;13.60;95.50
52189;DHT22;38162;45.926;13.608;2023-04-25T13:25:53;13.70;95.40
52189;DHT22;38162;45.926;13.608;2023-04-25T13:28:20;13.70;95.70
52189;DHT22;38162;45.926;13.608;2023-04-25T13:30:46;13.70;95.50
52189;DHT22;38162;45.926;13.608;2023-04-25T13:33:13;13.70;94.90
52189;DHT22;38162;45.926;13.608;2023-04-25T13:35:39;13.70;95.20
52189;DHT22;38162;45.926;13.608;2023-04-25T13:38:05;13.70;96.00
52189;DHT22;38162;45.926;13.608;2023-04-25T13:40:31;13.70;95.60
52189;DHT22;38162;45.926;13.608;2023-04-25T13:42:57;13.70;95.20
52189;DHT22;38162;45.926;13.608;2023-04-25T13:45:23;13.70;95.00
52189;DHT22;38162;45.926;13.608;2023-04-25T13:47:49;13.70;94.20
52189;DHT22;38162;45.926;13.608;2023-04-25T13:50:15;13.70;94.50
52189;DHT22;38162;45.926;13.608;2023-04-25T13:52:41;13.70;94.80
52189;DHT22;38162;45.926;13.608;2023-04-25T13:55:08;13.70;94.30
52189;DHT22;38162;45.926;13.608;2023-04-25T13:57:34;13.70;94.00
52189;DHT22;38162;45.926;13.608;2023-04-25T14:00:00;13.70;94.20
52189;DHT22;38162;45.926;13.608;2023-04-25T14:02:31;13.80;94.40
52189;DHT22;38162;45.926;13.608;2023-04-25T14:04:57;13.80;94.20
52189;DHT22;38162;45.926;13.608;2023-04-25T14:07:23;13.90;93.70
52189;DHT22;38162;45.926;13.608;2023-04-25T14:09:48;13.90;93.70
52189;DHT22;38162;45.926;13.608;2023-04-25T14:12:15;14.00;93.50
52189;DHT22;38162;45.926;13.608;2023-04-25T14:14:41;14.00;93.50
52189;DHT22;38162;45.926;13.608;2023-04-25T14:17:08;14.10;93.20
52189;DHT22;38162;45.926;13.608;2023-04-25T14:19:34;14.20;93.60
52189;DHT22;38162;45.926;13.608;2023-04-25T14:22:00;14.20;93.70
52189;DHT22;38162;45.926;13.608;2023-04-25T14:24:26;14.40;93.50
52189;DHT22;38162;45.926;13.608;2023-04-25T14:26:51;14.40;92.70
52189;DHT22;38162;45.926;13.608;2023-04-25T14:29:17;14.60;92.90
52189;DHT22;38162;45.926;13.608;2023-04-25T14:31:43;14.70;93.00
52189;DHT22;38162;45.926;13.608;2023-04-25T14:34:09;14.80;93.00
52189;DHT22;38162;45.926;13.608;2023-04-25T14:36:35;14.80;91.20
52189;DHT22;38162;45.926;13.608;2023-04-25T14:39:01;14.90;90.70
52189;DHT22;38162;45.926;13.608;2023-04-25T14:41:27;14.90;91.10
52189;DHT22;38162;45.926;13.608;2023-04-25T14:43:53;15.00;91.20
52189;DHT22;38162;45.926;13.608;2023-04-25T14:46:20;15.20;91.20
52189;DHT22;38162;45.926;13.608;2023-04-25T14:48:46;15.20;91.20
52189;DHT22;38162;45.926;13.608;2023-04-25T14:51:12;15.30;91.10
52189;DHT22;38162;45.926;13.608;2023-04-25T14:53:39;15.50;90.50
52189;DHT22;38162;45.926;13.608;2023-04-25T14:56:05;15.50;89.00
52189;DHT22;38162;45.926;13.608;2023-04-25T14:58:31;15.60;88.80
52189;DHT22;38162;45.926;13.608;2023-04-25T15:00:57;15.60;88.30
52189;DHT22;38162;45.926;13.608;2023-04-25T15:03:23;15.70;89.50
52189;DHT22;38162;45.926;13.608;2023-04-25T15:05:48;15.80;88.20
52189;DHT22;38162;45.926;13.608;2023-04-25T15:08:14;15.80;87.70
52189;DHT22;38162;45.926;13.608;2023-04-25T15:10:40;15.80;85.80
52189;DHT22;38162;45.926;13.608;2023-04-25T15:13:06;15.70;84.70
52189;DHT22;38162;45.926;13.608;2023-04-25T15:15:31;15.70;84.10
52189;DHT22;38162;45.926;13.608;2023-04-25T15:17:57;15.70;84.60
52189;DHT22;38162;45.926;13.608;2023-04-25T15:20:23;15.70;85.90
52189;DHT22;38162;45.926;13.608;2023-04-25T15:22:49;15.70;84.30